sensor_id;sensor_type;location;lat;lon;timestamp;pressure;altitude;pressure_sealevel;temperature;humidity
28448;BME280;15675;52.870;-1.416;2024-03-07T00:01:23;101835.25;;;8.20;100.00
28448;BME280;15675;52.870;-1.416;2024-03-07T00:03:52;101828.88;;;8.37;100.00
28448;BME280;15675;52.870;-1.416;2024-03-07T00:06:17;101819.88;;;8.24;100.00
28448;BME280;15675;52.870;-1.416;2024-03-07T00:08:43;101818.88;;;8.21;100.00
28448;BME280;15675;52.870;-1.416;2024-03-07T00:11:08;101828.19;;;8.43;100.00
28448;BME280;15675;52.870;-1.416;2024-03-07T00:13:34;101819.09;;;8.27;100.00
28448;BME280;15675;52.870;-1.416;2024-03-07T00:16:00;101829.13;;;8.18;100.00
28448;BME280;15675;52.870;-1.416;2024-03-07T00:18:27;101829.75;;;8.38;100.00
28448;BME280;15675;52.870;-1.416;2024-03-07T00:20:52;101825.78;;;8.20;100.00
28448;BME280;15675;52.870;-1.416;2024-03-07T00:23:20;101830.59;;;7.82;100.00
28448;BME280;15675;52.870;-1.416;2024-03-07T00:25:46;101830.69;;;8.11;99.15
28448;BME280;15675;52.870;-1.416;2024-03-07T00:28:15;101832.50;;;7.88;98.73
28448;BME280;15675;52.870;-1.416;2024-03-07T00:30:45;101822.84;;;7.82;98.50
28448;BME280;15675;52.870;-1.416;2024-03-07T00:33:11;101821.75;;;7.74;97.45
28448;BME280;15675;52.870;-1.416;2024-03-07T00:35:37;101818.84;;;7.65;97.88
28448;BME280;15675;52.870;-1.416;2024-03-07T00:38:03;101825.94;;;7.98;99.88
28448;BME280;15675;52.870;-1.416;2024-03-07T00:40:29;101835.63;;;7.52;100.00
28448;BME280;15675;52.870;-1.416;2024-03-07T00:42:55;101828.25;;;7.63;100.00
28448;BME280;15675;52.870;-1.416;2024-03-07T00:45:20;101828.78;;;7.54;100.00
28448;BME280;15675;52.870;-1.416;2024-03-07T00:47:46;101826.78;;;7.71;100.00
28448;BME280;15675;52.870;-1.416;2024-03-07T00:50:14;101827.97;;;7.81;100.00
28448;BME280;15675;52.870;-1.416;2024-03-07T00:52:39;101829.69;;;8.07;100.00
28448;BME280;15675;52.870;-1.416;2024-03-07T00:55:06;101825.19;;;8.02;100.00
28448;BME280;15675;52.870;-1.416;2024-03-07T00:57:35;101832.44;;;8.13;99.64
28448;BME280;15675;52.870;-1.416;2024-03-07T01:00:02;101827.50;;;8.20;99.07
28448;BME280;15675;52.870;-1.416;2024-03-07T01:02:29;101831.19;;;8.28;99.01
28448;BME280;15675;52.870;-1.416;2024-03-07T01:04:55;101830.97;;;8.49;98.24
28448;BME280;15675;52.870;-1.416;2024-03-07T01:07:20;101835.06;;;8.70;97.27
28448;BME280;15675;52.870;-1.416;2024-03-07T01:09:47;101838.75;;;8.78;96.43
28448;BME280;15675;52.870;-1.416;2024-03-07T01:12:13;101836.94;;;8.75;95.05
28448;BME280;15675;52.870;-1.416;2024-03-07T01:14:38;101834.53;;;8.81;94.33
28448;BME280;15675;52.870;-1.416;2024-03-07T01:17:04;101829.47;;;8.86;92.95
28448;BME280;15675;52.870;-1.416;2024-03-07T01:19:32;101828.59;;;8.86;92.33
28448;BME280;15675;52.870;-1.416;2024-03-07T01:21:57;101825.22;;;8.88;91.28
28448;BME280;15675;52.870;-1.416;2024-03-07T01:24:23;101832.25;;;8.92;90.97
28448;BME280;15675;52.870;-1.416;2024-03-07T01:26:49;101834.59;;;8.85;90.31
28448;BME280;15675;52.870;-1.416;2024-03-07T01:29:14;101825.50;;;8.40;89.11
28448;BME280;15675;52.870;-1.416;2024-03-07T01:31:40;101828.56;;;7.99;90.69
28448;BME280;15675;52.870;-1.416;2024-03-07T01:34:06;101828.53;;;7.72;94.14
28448;BME280;15675;52.870;-1.416;2024-03-07T01:36:31;101827.47;;;7.91;95.28
28448;BME280;15675;52.870;-1.416;2024-03-07T01:38:57;101834.38;;;7.92;96.07
28448;BME280;15675;52.870;-1.416;2024-03-07T01:41:22;101829.28;;;7.95;95.41
28448;BME280;15675;52.870;-1.416;2024-03-07T01:43:48;101828.97;;;7.84;95.54
28448;BME280;15675;52.870;-1.416;2024-03-07T01:46:13;101831.13;;;7.72;95.51
28448;BME280;15675;52.870;-1.416;2024-03-07T01:48:39;101836.00;;;7.88;96.89
28448;BME280;15675;52.870;-1.416;2024-03-07T01:51:06;101840.84;;;7.53;98.45
28448;BME280;15675;52.870;-1.416;2024-03-07T01:53:32;101832.97;;;7.24;98.70
28448;BME280;15675;52.870;-1.416;2024-03-07T01:55:59;101849.53;;;7.05;100.00
28448;BME280;15675;52.870;-1.416;2024-03-07T01:58:25;101836.94;;;7.15;100.00
28448;BME280;15675;52.870;-1.416;2024-03-07T02:00:51;101846.59;;;6.96;100.00
28448;BME280;15675;52.870;-1.416;2024-03-07T02:03:17;101844.41;;;6.83;100.00
28448;BME280;15675;52.870;-1.416;2024-03-07T02:05:43;101844.88;;;6.72;100.00
28448;BME280;15675;52.870;-1.416;2024-03-07T02:08:09;101837.13;;;6.50;100.00
28448;BME280;15675;52.870;-1.416;2024-03-07T02:10:34;101841.69;;;6.33;100.00
28448;BME280;15675;52.870;-1.416;2024-03-07T02:13:00;101837.53;;;6.15;100.00
28448;BME280;15675;52.870;-1.416;2024-03-07T02:15:26;101838.06;;;6.07;100.00
28448;BME280;15675;52.870;-1.416;2024-03-07T02:17:52;101849.22;;;6.28;100.00
28448;BME280;15675;52.870;-1.416;2024-03-07T02:20:17;101841.59;;;6.09;100.00
28448;BME280;15675;52.870;-1.416;2024-03-07T02:22:43;101843.00;;;6.23;100.00
28448;BME280;15675;52.870;-1.416;2024-03-07T02:25:08;101843.75;;;6.20;100.00
28448;BME280;15675;52.870;-1.416;2024-03-07T02:27:38;101845.75;;;6.28;100.00
28448;BME280;15675;52.870;-1.416;2024-03-07T02:30:04;101843.25;;;6.08;100.00
28448;BME280;15675;52.870;-1.416;2024-03-07T02:32:34;101842.81;;;6.41;100.00
28448;BME280;15675;52.870;-1.416;2024-03-07T02:34:59;101837.38;;;6.33;100.00
28448;BME280;15675;52.870;-1.416;2024-03-07T02:37:25;101840.13;;;6.38;100.00
28448;BME280;15675;52.870;-1.416;2024-03-07T02:39:50;101830.44;;;6.10;100.00
28448;BME280;15675;52.870;-1.416;2024-03-07T02:42:16;101838.38;;;6.37;100.00
28448;BME280;15675;52.870;-1.416;2024-03-07T02:44:42;101832.91;;;6.29;100.00
28448;BME280;15675;52.870;-1.416;2024-03-07T02:47:07;101840.19;;;6.62;100.00
28448;BME280;15675;52.870;-1.416;2024-03-07T02:49:33;101848.47;;;6.53;100.00
28448;BME280;15675;52.870;-1.416;2024-03-07T02:51:58;101833.41;;;5.98;100.00
28448;BME280;15675;52.870;-1.416;2024-03-07T02:54:24;101848.09;;;6.21;100.00
28448;BME280;15675;52.870;-1.416;2024-03-07T02:56:50;101842.00;;;6.19;100.00
28448;BME280;15675;52.870;-1.416;2024-03-07T02:59:15;101842.44;;;6.09;100.00
28448;BME280;15675;52.870;-1.416;2024-03-07T03:01:42;101833.59;;;5.60;100.00
28448;BME280;15675;52.870;-1.416;2024-03-07T03:04:07;101833.06;;;5.69;100.00
28448;BME280;15675;52.870;-1.416;2024-03-07T03:06:33;101842.00;;;5.77;100.00
28448;BME280;15675;52.870;-1.416;2024-03-07T03:08:59;101833.91;;;5.48;100.00
28448;BME280;15675;52.870;-1.416;2024-03-07T03:11:24;101844.19;;;5.68;100.00
28448;BME280;15675;52.870;-1.416;2024-03-07T03:13:53;101839.97;;;5.91;100.00
28448;BME280;15675;52.870;-1.416;2024-03-07T03:16:19;101832.84;;;6.05;100.00
28448;BME280;15675;52.870;-1.416;2024-03-07T03:18:44;101839.09;;;6.33;100.00
28448;BME280;15675;52.870;-1.416;2024-03-07T03:21:10;101830.44;;;6.10;100.00
28448;BME280;15675;52.870;-1.416;2024-03-07T03:23:36;101834.72;;;6.09;100.00
28448;BME280;15675;52.870;-1.416;2024-03-07T03:26:02;101839.50;;;6.00;100.00
28448;BME280;15675;52.870;-1.416;2024-03-07T03:28:28;101838.16;;;6.10;100.00
28448;BME280;15675;52.870;-1.416;2024-03-07T03:30:53;101845.66;;;6.70;100.00
28448;BME280;15675;52.870;-1.416;2024-03-07T03:33:19;101834.72;;;6.09;100.00
28448;BME280;15675;52.870;-1.416;2024-03-07T03:35:46;101824.66;;;5.73;100.00
28448;BME280;15675;52.870;-1.416;2024-03-07T03:38:11;101827.53;;;6.23;100.00
28448;BME280;15675;52.870;-1.416;2024-03-07T03:40:37;101829.28;;;6.24;100.00
28448;BME280;15675;52.870;-1.416;2024-03-07T03:43:02;101827.78;;;6.52;100.00
28448;BME280;15675;52.870;-1.416;2024-03-07T03:45:28;101827.22;;;6.15;100.00
28448;BME280;15675;52.870;-1.416;2024-03-07T03:47:54;101819.06;;;5.83;100.00
28448;BME280;15675;52.870;-1.416;2024-03-07T03:50:20;101831.13;;;6.05;100.00
28448;BME280;15675;52.870;-1.416;2024-03-07T03:52:48;101827.94;;;6.34;100.00
28448;BME280;15675;52.870;-1.416;2024-03-07T03:55:13;101833.78;;;6.30;100.00
28448;BME280;15675;52.870;-1.416;2024-03-07T03:57:40;101827.00;;;6.32;100.00
28448;BME280;15675;52.870;-1.416;2024-03-07T04:00:08;101826.06;;;6.07;100.00
28448;BME280;15675;52.870;-1.416;2024-03-07T04:02:44;101816.59;;;5.86;100.00
28448;BME280;15675;52.870;-1.416;2024-03-07T04:05:13;101819.63;;;5.76;100.00
28448;BME280;15675;52.870;-1.416;2024-03-07T04:07:39;101820.19;;;5.90;100.00
28448;BME280;15675;52.870;-1.416;2024-03-07T04:10:06;101828.44;;;6.02;100.00
28448;BME280;15675;52.870;-1.416;2024-03-07T04:12:36;101825.34;;;6.11;100.00
28448;BME280;15675;52.870;-1.416;2024-03-07T04:15:10;101830.75;;;6.17;100.00
28448;BME280;15675;52.870;-1.416;2024-03-07T04:17:37;101824.91;;;6.21;100.00
28448;BME280;15675;52.870;-1.416;2024-03-07T04:20:04;101823.16;;;5.99;100.00
28448;BME280;15675;52.870;-1.416;2024-03-07T04:22:37;101837.34;;;5.90;100.00
28448;BME280;15675;52.870;-1.416;2024-03-07T04:25:05;101831.94;;;5.83;100.00
28448;BME280;15675;52.870;-1.416;2024-03-07T04:27:33;101833.06;;;6.11;100.00
28448;BME280;15675;52.870;-1.416;2024-03-07T04:29:59;101828.56;;;6.05;100.00
28448;BME280;15675;52.870;-1.416;2024-03-07T04:32:28;101833.91;;;6.10;100.00
28448;BME280;15675;52.870;-1.416;2024-03-07T04:34:54;101837.69;;;5.97;100.00
28448;BME280;15675;52.870;-1.416;2024-03-07T04:37:22;101839.66;;;6.03;100.00
28448;BME280;15675;52.870;-1.416;2024-03-07T04:39:48;101847.00;;;6.37;100.00
28448;BME280;15675;52.870;-1.416;2024-03-07T04:42:13;101848.88;;;6.42;100.00
28448;BME280;15675;52.870;-1.416;2024-03-07T04:44:39;101852.63;;;6.50;100.00
28448;BME280;15675;52.870;-1.416;2024-03-07T04:47:05;101845.41;;;6.41;100.00
28448;BME280;15675;52.870;-1.416;2024-03-07T04:49:33;101852.88;;;6.56;100.00
28448;BME280;15675;52.870;-1.416;2024-03-07T04:52:00;101851.25;;;6.60;100.00
28448;BME280;15675;52.870;-1.416;2024-03-07T04:54:27;101843.69;;;6.19;100.00
28448;BME280;15675;52.870;-1.416;2024-03-07T04:56:53;101845.41;;;6.41;100.00
28448;BME280;15675;52.870;-1.416;2024-03-07T04:59:20;101838.53;;;6.19;100.00
28448;BME280;15675;52.870;-1.416;2024-03-07T05:01:47;101841.13;;;6.19;100.00
28448;BME280;15675;52.870;-1.416;2024-03-07T05:04:13;101847.22;;;6.44;100.00
28448;BME280;15675;52.870;-1.416;2024-03-07T05:06:39;101850.63;;;6.43;100.00
28448;BME280;15675;52.870;-1.416;2024-03-07T05:09:08;101853.63;;;6.53;100.00
28448;BME280;15675;52.870;-1.416;2024-03-07T05:11:49;101850.44;;;6.38;100.00
28448;BME280;15675;52.870;-1.416;2024-03-07T05:14:17;101845.97;;;6.11;100.00
28448;BME280;15675;52.870;-1.416;2024-03-07T05:16:43;101845.03;;;6.09;100.00
28448;BME280;15675;52.870;-1.416;2024-03-07T05:19:08;101837.41;;;5.91;100.00
28448;BME280;15675;52.870;-1.416;2024-03-07T05:21:34;101849.66;;;5.97;100.00
28448;BME280;15675;52.870;-1.416;2024-03-07T05:24:05;101847.22;;;6.00;100.00
28448;BME280;15675;52.870;-1.416;2024-03-07T05:26:31;101850.81;;;6.25;100.00
28448;BME280;15675;52.870;-1.416;2024-03-07T05:29:03;101851.84;;;6.52;100.00
28448;BME280;15675;52.870;-1.416;2024-03-07T05:31:37;101848.47;;;6.53;100.00
28448;BME280;15675;52.870;-1.416;2024-03-07T05:34:03;101849.47;;;6.57;100.00
28448;BME280;15675;52.870;-1.416;2024-03-07T05:36:30;101851.91;;;6.54;100.00
28448;BME280;15675;52.870;-1.416;2024-03-07T05:38:57;101852.81;;;6.32;100.00
28448;BME280;15675;52.870;-1.416;2024-03-07T05:41:23;101859.53;;;6.51;100.00
28448;BME280;15675;52.870;-1.416;2024-03-07T05:43:48;101853.06;;;6.17;100.00
28448;BME280;15675;52.870;-1.416;2024-03-07T05:46:16;101855.38;;;6.32;100.00
28448;BME280;15675;52.870;-1.416;2024-03-07T05:48:42;101847.44;;;6.04;100.00
28448;BME280;15675;52.870;-1.416;2024-03-07T05:51:07;101854.78;;;6.16;100.00
28448;BME280;15675;52.870;-1.416;2024-03-07T05:53:35;101854.88;;;6.19;100.00
28448;BME280;15675;52.870;-1.416;2024-03-07T05:56:00;101859.91;;;6.37;100.00
28448;BME280;15675;52.870;-1.416;2024-03-07T05:58:26;101849.84;;;6.22;100.00
28448;BME280;15675;52.870;-1.416;2024-03-07T06:00:52;101856.31;;;6.34;100.00
28448;BME280;15675;52.870;-1.416;2024-03-07T06:03:19;101853.56;;;6.29;100.00
28448;BME280;15675;52.870;-1.416;2024-03-07T06:05:50;101847.00;;;5.95;100.00
28448;BME280;15675;52.870;-1.416;2024-03-07T06:08:17;101852.25;;;6.18;100.00
28448;BME280;15675;52.870;-1.416;2024-03-07T06:10:44;101857.00;;;6.07;100.00
28448;BME280;15675;52.870;-1.416;2024-03-07T06:13:11;101853.72;;;6.34;100.00
28448;BME280;15675;52.870;-1.416;2024-03-07T06:15:40;101857.38;;;6.62;100.00
28448;BME280;15675;52.870;-1.416;2024-03-07T06:18:06;101847.59;;;6.09;100.00
28448;BME280;15675;52.870;-1.416;2024-03-07T06:20:36;101837.88;;;6.02;100.00
28448;BME280;15675;52.870;-1.416;2024-03-07T06:23:03;101853.22;;;6.20;100.00
28448;BME280;15675;52.870;-1.416;2024-03-07T06:25:31;101853.22;;;5.99;100.00
28448;BME280;15675;52.870;-1.416;2024-03-07T06:28:06;101853.50;;;6.28;100.00
28448;BME280;15675;52.870;-1.416;2024-03-07T06:30:42;101859.13;;;6.17;100.00
28448;BME280;15675;52.870;-1.416;2024-03-07T06:33:09;101859.97;;;6.18;100.00
28448;BME280;15675;52.870;-1.416;2024-03-07T06:35:38;101846.72;;;5.87;100.00
28448;BME280;15675;52.870;-1.416;2024-03-07T06:38:11;101856.59;;;5.98;100.00
28448;BME280;15675;52.870;-1.416;2024-03-07T06:40:38;101851.84;;;6.07;100.00
28448;BME280;15675;52.870;-1.416;2024-03-07T06:43:05;101857.00;;;6.07;100.00
28448;BME280;15675;52.870;-1.416;2024-03-07T06:45:39;101867.09;;;6.46;100.00
28448;BME280;15675;52.870;-1.416;2024-03-07T06:48:07;101870.66;;;6.50;100.00
28448;BME280;15675;52.870;-1.416;2024-03-07T06:50:34;101869.53;;;6.20;100.00
28448;BME280;15675;52.870;-1.416;2024-03-07T06:53:03;101868.28;;;6.32;100.00
28448;BME280;15675;52.870;-1.416;2024-03-07T06:55:28;101869.16;;;6.32;100.00
28448;BME280;15675;52.870;-1.416;2024-03-07T06:57:54;101868.94;;;5.85;100.00
28448;BME280;15675;52.870;-1.416;2024-03-07T07:00:20;101867.50;;;5.92;100.00
28448;BME280;15675;52.870;-1.416;2024-03-07T07:02:47;101866.16;;;6.00;100.00
28448;BME280;15675;52.870;-1.416;2024-03-07T07:05:13;101858.72;;;6.08;100.00
28448;BME280;15675;52.870;-1.416;2024-03-07T07:07:47;101852.72;;;6.08;100.00
28448;BME280;15675;52.870;-1.416;2024-03-07T07:10:13;101855.91;;;6.02;100.00
28448;BME280;15675;52.870;-1.416;2024-03-07T07:12:50;101851.03;;;5.88;100.00
28448;BME280;15675;52.870;-1.416;2024-03-07T07:15:16;101862.75;;;5.80;100.00
28448;BME280;15675;52.870;-1.416;2024-03-07T07:17:44;101861.22;;;5.64;100.00
28448;BME280;15675;52.870;-1.416;2024-03-07T07:20:15;101859.81;;;5.51;100.00
28448;BME280;15675;52.870;-1.416;2024-03-07T07:22:41;101866.13;;;5.39;100.00
28448;BME280;15675;52.870;-1.416;2024-03-07T07:25:07;101861.41;;;5.69;100.00
28448;BME280;15675;52.870;-1.416;2024-03-07T07:27:44;101857.22;;;5.51;100.00
28448;BME280;15675;52.870;-1.416;2024-03-07T07:30:12;101858.00;;;5.70;100.00
28448;BME280;15675;52.870;-1.416;2024-03-07T07:32:39;101870.97;;;5.93;100.00
28448;BME280;15675;52.870;-1.416;2024-03-07T07:35:05;101859.19;;;5.57;100.00
28448;BME280;15675;52.870;-1.416;2024-03-07T07:40:04;101868.97;;;5.64;100.00
28448;BME280;15675;52.870;-1.416;2024-03-07T07:42:33;101867.34;;;5.87;100.00
28448;BME280;15675;52.870;-1.416;2024-03-07T07:44:59;101869.22;;;5.70;100.00
28448;BME280;15675;52.870;-1.416;2024-03-07T07:47:24;101862.59;;;5.56;100.00
28448;BME280;15675;52.870;-1.416;2024-03-07T07:49:50;101865.09;;;5.76;100.00
28448;BME280;15675;52.870;-1.416;2024-03-07T07:52:15;101868.47;;;5.73;100.00
28448;BME280;15675;52.870;-1.416;2024-03-07T07:54:43;101872.94;;;5.77;100.00
28448;BME280;15675;52.870;-1.416;2024-03-07T07:57:08;101876.78;;;6.08;100.00
28448;BME280;15675;52.870;-1.416;2024-03-07T07:59:34;101872.75;;;6.15;100.00
28448;BME280;15675;52.870;-1.416;2024-03-07T08:02:00;101864.56;;;5.83;100.00
28448;BME280;15675;52.870;-1.416;2024-03-07T08:04:26;101860.44;;;5.67;100.00
28448;BME280;15675;52.870;-1.416;2024-03-07T08:06:52;101867.00;;;5.59;100.00
28448;BME280;15675;52.870;-1.416;2024-03-07T08:09:18;101862.09;;;5.65;100.00
28448;BME280;15675;52.870;-1.416;2024-03-07T08:11:44;101858.75;;;5.46;100.00
28448;BME280;15675;52.870;-1.416;2024-03-07T08:14:10;101853.34;;;5.61;100.00
28448;BME280;15675;52.870;-1.416;2024-03-07T08:16:36;101852.50;;;5.41;100.00
28448;BME280;15675;52.870;-1.416;2024-03-07T08:19:02;101855.81;;;5.39;100.00
28448;BME280;15675;52.870;-1.416;2024-03-07T08:21:28;101846.56;;;5.42;100.00
28448;BME280;15675;52.870;-1.416;2024-03-07T08:23:54;101851.38;;;5.56;100.00
28448;BME280;15675;52.870;-1.416;2024-03-07T08:26:20;101844.66;;;5.38;100.00
28448;BME280;15675;52.870;-1.416;2024-03-07T08:28:46;101849.28;;;5.66;100.00
28448;BME280;15675;52.870;-1.416;2024-03-07T08:31:12;101845.56;;;5.81;100.00
28448;BME280;15675;52.870;-1.416;2024-03-07T08:33:38;101845.41;;;5.76;100.00
28448;BME280;15675;52.870;-1.416;2024-03-07T08:36:03;101848.03;;;5.78;100.00
28448;BME280;15675;52.870;-1.416;2024-03-07T08:38:30;101850.94;;;5.64;100.00
28448;BME280;15675;52.870;-1.416;2024-03-07T08:40:55;101841.47;;;5.44;100.00
28448;BME280;15675;52.870;-1.416;2024-03-07T08:43:22;101837.03;;;5.61;100.00
28448;BME280;15675;52.870;-1.416;2024-03-07T08:45:47;101841.78;;;5.51;100.00
28448;BME280;15675;52.870;-1.416;2024-03-07T08:48:13;101842.31;;;5.44;100.00
28448;BME280;15675;52.870;-1.416;2024-03-07T08:50:39;101836.72;;;5.53;100.00
28448;BME280;15675;52.870;-1.416;2024-03-07T08:53:06;101841.81;;;5.32;100.00
28448;BME280;15675;52.870;-1.416;2024-03-07T08:55:31;101850.22;;;5.68;100.00
28448;BME280;15675;52.870;-1.416;2024-03-07T08:57:57;101841.38;;;5.62;100.00
28448;BME280;15675;52.870;-1.416;2024-03-07T09:00:22;101845.34;;;5.34;100.00
28448;BME280;15675;52.870;-1.416;2024-03-07T09:02:53;101846.00;;;5.49;100.00
28448;BME280;15675;52.870;-1.416;2024-03-07T09:05:20;101845.75;;;5.43;100.00
28448;BME280;15675;52.870;-1.416;2024-03-07T09:07:47;101844.53;;;5.35;100.00
28448;BME280;15675;52.870;-1.416;2024-03-07T09:10:13;101845.94;;;5.48;100.00
28448;BME280;15675;52.870;-1.416;2024-03-07T09:12:49;101848.88;;;5.57;100.00
28448;BME280;15675;52.870;-1.416;2024-03-07T09:15:16;101843.38;;;5.69;100.00
28448;BME280;15675;52.870;-1.416;2024-03-07T09:17:42;101848.72;;;5.33;100.00
28448;BME280;15675;52.870;-1.416;2024-03-07T09:20:09;101850.00;;;5.43;100.00
28448;BME280;15675;52.870;-1.416;2024-03-07T09:22:46;101855.38;;;5.28;100.00
28448;BME280;15675;52.870;-1.416;2024-03-07T09:25:16;101850.16;;;5.46;100.00
28448;BME280;15675;52.870;-1.416;2024-03-07T09:27:42;101850.72;;;5.81;100.00
28448;BME280;15675;52.870;-1.416;2024-03-07T09:30:09;101846.41;;;5.59;100.00
28448;BME280;15675;52.870;-1.416;2024-03-07T09:32:39;101837.66;;;5.76;100.00
28448;BME280;15675;52.870;-1.416;2024-03-07T09:35:05;101840.38;;;5.79;100.00
28448;BME280;15675;52.870;-1.416;2024-03-07T09:37:32;101836.84;;;5.77;100.00
28448;BME280;15675;52.870;-1.416;2024-03-07T09:39:58;101833.13;;;5.70;100.00
28448;BME280;15675;52.870;-1.416;2024-03-07T09:42:25;101839.91;;;5.68;100.00
28448;BME280;15675;52.870;-1.416;2024-03-07T09:44:51;101841.38;;;5.62;100.00
28448;BME280;15675;52.870;-1.416;2024-03-07T09:47:18;101843.19;;;5.85;100.00
28448;BME280;15675;52.870;-1.416;2024-03-07T09:49:45;101837.78;;;5.79;100.00
28448;BME280;15675;52.870;-1.416;2024-03-07T09:52:11;101843.72;;;5.98;100.00
28448;BME280;15675;52.870;-1.416;2024-03-07T09:54:39;101829.47;;;5.86;100.00
28448;BME280;15675;52.870;-1.416;2024-03-07T09:57:06;101836.22;;;5.62;100.00
28448;BME280;15675;52.870;-1.416;2024-03-07T09:59:35;101835.78;;;5.72;100.00
28448;BME280;15675;52.870;-1.416;2024-03-07T10:02:06;101831.81;;;5.80;100.00
28448;BME280;15675;52.870;-1.416;2024-03-07T10:04:38;101841.00;;;5.95;100.00
28448;BME280;15675;52.870;-1.416;2024-03-07T10:07:07;101832.13;;;5.67;100.00
28448;BME280;15675;52.870;-1.416;2024-03-07T10:09:38;101838.94;;;6.07;100.00
28448;BME280;15675;52.870;-1.416;2024-03-07T10:12:06;101834.59;;;6.06;100.00
28448;BME280;15675;52.870;-1.416;2024-03-07T10:14:34;101830.19;;;5.82;100.00
28448;BME280;15675;52.870;-1.416;2024-03-07T10:17:00;101834.63;;;6.29;100.00
28448;BME280;15675;52.870;-1.416;2024-03-07T10:19:28;101827.78;;;6.08;100.00
28448;BME280;15675;52.870;-1.416;2024-03-07T10:21:53;101829.19;;;6.00;100.00
28448;BME280;15675;52.870;-1.416;2024-03-07T10:24:26;101834.03;;;6.13;100.00
28448;BME280;15675;52.870;-1.416;2024-03-07T10:26:52;101820.75;;;6.04;100.00
28448;BME280;15675;52.870;-1.416;2024-03-07T10:29:18;101826.09;;;6.31;100.00
28448;BME280;15675;52.870;-1.416;2024-03-07T10:31:44;101831.16;;;6.28;100.00
28448;BME280;15675;52.870;-1.416;2024-03-07T10:34:11;101822.59;;;6.29;100.00
28448;BME280;15675;52.870;-1.416;2024-03-07T10:36:37;101817.97;;;6.20;100.00
28448;BME280;15675;52.870;-1.416;2024-03-07T10:39:02;101816.16;;;6.41;100.00
28448;BME280;15675;52.870;-1.416;2024-03-07T10:41:47;101814.94;;;6.31;100.00
28448;BME280;15675;52.870;-1.416;2024-03-07T10:44:25;101813.38;;;6.34;100.00
28448;BME280;15675;52.870;-1.416;2024-03-07T10:46:53;101813.88;;;6.48;100.00
28448;BME280;15675;52.870;-1.416;2024-03-07T10:49:20;101811.53;;;6.32;100.00
28448;BME280;15675;52.870;-1.416;2024-03-07T10:52:23;101806.31;;;6.30;100.00
28448;BME280;15675;52.870;-1.416;2024-03-07T10:55:00;101817.41;;;6.28;100.00
28448;BME280;15675;52.870;-1.416;2024-03-07T10:57:50;101817.44;;;6.52;100.00
28448;BME280;15675;52.870;-1.416;2024-03-07T11:00:26;101812.56;;;6.60;100.00
28448;BME280;15675;52.870;-1.416;2024-03-07T11:02:56;101805.88;;;6.65;100.00
28448;BME280;15675;52.870;-1.416;2024-03-07T11:05:25;101804.19;;;6.43;100.00
28448;BME280;15675;52.870;-1.416;2024-03-07T11:07:57;101803.44;;;6.45;100.00
28448;BME280;15675;52.870;-1.416;2024-03-07T11:10:24;101810.59;;;6.52;100.00
28448;BME280;15675;52.870;-1.416;2024-03-07T11:12:51;101806.34;;;6.77;100.00
28448;BME280;15675;52.870;-1.416;2024-03-07T11:15:18;101805.84;;;6.87;100.00
28448;BME280;15675;52.870;-1.416;2024-03-07T11:17:48;101788.00;;;6.24;100.00
28448;BME280;15675;52.870;-1.416;2024-03-07T11:20:19;101810.19;;;6.42;100.00
28448;BME280;15675;52.870;-1.416;2024-03-07T11:22:45;101802.03;;;6.31;100.00
28448;BME280;15675;52.870;-1.416;2024-03-07T11:25:11;101812.47;;;6.56;100.00
28448;BME280;15675;52.870;-1.416;2024-03-07T11:27:37;101792.03;;;6.38;100.00
28448;BME280;15675;52.870;-1.416;2024-03-07T11:30:08;101804.00;;;6.61;100.00
28448;BME280;15675;52.870;-1.416;2024-03-07T11:32:38;101798.59;;;6.53;100.00
28448;BME280;15675;52.870;-1.416;2024-03-07T11:35:13;101799.72;;;6.61;100.00
28448;BME280;15675;52.870;-1.416;2024-03-07T11:37:56;101795.81;;;6.48;100.00
28448;BME280;15675;52.870;-1.416;2024-03-07T11:42:51;101791.13;;;6.61;100.00
28448;BME280;15675;52.870;-1.416;2024-03-07T11:45:19;101782.09;;;6.49;100.00
28448;BME280;15675;52.870;-1.416;2024-03-07T11:48:00;101782.91;;;6.48;100.00
28448;BME280;15675;52.870;-1.416;2024-03-07T11:50:32;101776.72;;;6.43;100.00
28448;BME280;15675;52.870;-1.416;2024-03-07T11:53:02;101784.97;;;6.57;100.00
28448;BME280;15675;52.870;-1.416;2024-03-07T11:55:28;101768.44;;;6.52;100.00
28448;BME280;15675;52.870;-1.416;2024-03-07T11:58:17;101778.84;;;6.78;100.00
28448;BME280;15675;52.870;-1.416;2024-03-07T12:00:44;101776.16;;;6.74;100.00
28448;BME280;15675;52.870;-1.416;2024-03-07T12:05:42;101763.28;;;7.00;100.00
28448;BME280;15675;52.870;-1.416;2024-03-07T12:08:09;101760.56;;;6.96;100.00
28448;BME280;15675;52.870;-1.416;2024-03-07T12:10:39;101754.38;;;6.68;100.00
28448;BME280;15675;52.870;-1.416;2024-03-07T12:13:09;101751.78;;;7.16;100.00
28448;BME280;15675;52.870;-1.416;2024-03-07T12:15:40;101740.88;;;6.99;100.00
28448;BME280;15675;52.870;-1.416;2024-03-07T12:18:06;101744.75;;;7.38;100.00
28448;BME280;15675;52.870;-1.416;2024-03-07T12:20:41;101731.88;;;6.88;100.00
28448;BME280;15675;52.870;-1.416;2024-03-07T12:23:12;101730.19;;;7.14;100.00
28448;BME280;15675;52.870;-1.416;2024-03-07T12:25:38;101730.53;;;7.25;100.00
28448;BME280;15675;52.870;-1.416;2024-03-07T12:28:10;101728.34;;;7.36;100.00
28448;BME280;15675;52.870;-1.416;2024-03-07T12:30:56;101723.09;;;6.83;100.00
28448;BME280;15675;52.870;-1.416;2024-03-07T12:33:23;101711.28;;;7.15;100.00
28448;BME280;15675;52.870;-1.416;2024-03-07T12:35:53;101706.38;;;7.23;100.00
28448;BME280;15675;52.870;-1.416;2024-03-07T12:38:25;101707.53;;;7.58;100.00
28448;BME280;15675;52.870;-1.416;2024-03-07T12:41:04;101696.81;;;7.20;100.00
28448;BME280;15675;52.870;-1.416;2024-03-07T12:43:40;101691.72;;;7.49;100.00
28448;BME280;15675;52.870;-1.416;2024-03-07T12:46:10;101692.91;;;7.59;100.00
28448;BME280;15675;52.870;-1.416;2024-03-07T12:48:37;101673.78;;;7.54;100.00
28448;BME280;15675;52.870;-1.416;2024-03-07T12:51:04;101673.91;;;7.57;100.00